createdAt,value
2023-02-04T00:00:14.942Z,101368.25
2023-02-04T00:00:51.352Z,101369.34
2023-02-04T00:01:27.748Z,101377.25
2023-02-04T00:02:04.239Z,101368.25
2023-02-04T00:02:40.904Z,101369.91
2023-02-04T00:03:17.279Z,101372.91
2023-02-04T00:03:53.986Z,101369.91
2023-02-04T00:04:30.007Z,101371.56
2023-02-04T00:05:06.014Z,101368.84
2023-02-04T00:05:41.595Z,101368.00
2023-02-04T00:06:18.405Z,101362.56
2023-02-04T00:06:54.450Z,101363.38
2023-02-04T00:07:31.060Z,101369.09
2023-02-04T00:08:07.667Z,101368.84
2023-02-04T00:08:44.616Z,101369.66
2023-02-04T00:09:20.976Z,101366.09
2023-02-04T00:09:57.391Z,101374.84
2023-02-04T00:10:33.527Z,101375.13
2023-02-04T00:11:08.899Z,101378.09
2023-02-04T00:11:44.638Z,101372.63
2023-02-04T00:12:20.995Z,101374.53
2023-02-04T00:12:57.306Z,101374.28
2023-02-04T00:13:34.106Z,101379.41
2023-02-04T00:14:10.635Z,101380.81
2023-02-04T00:14:46.978Z,101380.56
2023-02-04T00:15:23.324Z,101381.38
2023-02-04T00:15:59.793Z,101384.63
2023-02-04T00:16:35.252Z,101389.81
2023-02-04T00:17:11.927Z,101388.44
2023-02-04T00:17:48.378Z,101379.41
2023-02-04T00:18:25.131Z,101381.06
2023-02-04T00:19:01.616Z,101384.38
2023-02-04T00:19:38.014Z,101384.94
2023-02-04T00:20:14.892Z,101384.38
2023-02-04T00:20:51.238Z,101380.81
2023-02-04T00:21:27.275Z,101380.00
2023-02-04T00:22:03.295Z,101389.00
2023-02-04T00:22:39.760Z,101387.09
2023-02-04T00:23:16.177Z,101389.00
2023-02-04T00:23:52.444Z,101395.53
2023-02-04T00:24:28.778Z,101389.25
2023-02-04T00:25:05.430Z,101392.22
2023-02-04T00:25:42.149Z,101395.78
2023-02-04T00:26:19.229Z,101393.63
2023-02-04T00:26:55.397Z,101398.25
2023-02-04T00:27:30.828Z,101393.06
2023-02-04T00:28:07.869Z,101400.16
2023-02-04T00:28:44.338Z,101390.06
2023-02-04T00:29:20.938Z,101400.41
2023-02-04T00:29:57.364Z,101392.81
2023-02-04T00:30:34.092Z,101406.44
2023-02-04T00:31:10.133Z,101398.25
2023-02-04T00:31:46.540Z,101402.06
2023-02-04T00:32:23.032Z,101404.28
2023-02-04T00:32:58.443Z,101400.72
2023-02-04T00:33:35.252Z,101404.78
2023-02-04T00:34:11.471Z,101403.13
2023-02-04T00:34:47.920Z,101402.06
2023-02-04T00:35:24.611Z,101399.34
2023-02-04T00:36:00.998Z,101407.19
2023-02-04T00:36:37.668Z,101407.50
2023-02-04T00:37:14.350Z,101411.63
2023-02-04T00:37:50.121Z,101400.97
2023-02-04T00:38:25.776Z,101407.00
2023-02-04T00:39:01.731Z,101406.19
2023-02-04T00:39:38.732Z,101409.16
2023-02-04T00:40:15.084Z,101406.44
2023-02-04T00:40:51.667Z,101410.25
2023-02-04T00:41:27.752Z,101411.88
2023-02-04T00:42:05.168Z,101403.97
2023-02-04T00:42:41.680Z,101409.16
2023-02-04T00:43:17.238Z,101407.50
2023-02-04T00:43:52.515Z,101408.84
2023-02-04T00:44:29.307Z,101407.50
2023-02-04T00:45:06.265Z,101409.16
2023-02-04T00:45:42.974Z,101407.50
2023-02-04T00:46:18.648Z,101406.19
2023-02-04T00:46:54.076Z,101404.28
2023-02-04T00:47:30.640Z,101404.78
2023-02-04T00:48:06.903Z,101402.06
2023-02-04T00:48:43.744Z,101403.72
2023-02-04T00:49:20.886Z,101402.88
2023-02-04T00:49:56.773Z,101403.72
2023-02-04T00:50:33.434Z,101399.34
2023-02-04T00:51:09.334Z,101396.84
2023-02-04T00:51:45.108Z,101400.41
2023-02-04T00:52:21.489Z,101398.25
2023-02-04T00:52:58.180Z,101402.88
2023-02-04T00:53:34.600Z,101409.16
2023-02-04T00:54:11.213Z,101405.59
2023-02-04T00:54:47.754Z,101416.78
2023-02-04T00:55:24.140Z,101410.50
2023-02-04T00:56:00.567Z,101405.88
2023-02-04T00:56:36.985Z,101408.34
2023-02-04T00:57:12.697Z,101408.34
2023-02-04T00:57:48.516Z,101412.38
2023-02-04T00:58:24.931Z,101408.09
2023-02-04T00:59:01.285Z,101411.31
2023-02-04T00:59:37.417Z,101410.25
2023-02-04T01:00:13.896Z,101413.47
2023-02-04T01:00:50.630Z,101415.63
2023-02-04T01:01:26.863Z,101414.53
2023-02-04T01:02:03.031Z,101417.28
2023-02-04T01:02:38.505Z,101424.38
2023-02-04T01:03:14.974Z,101418.91
2023-02-04T01:03:51.412Z,101426.84
2023-02-04T01:04:28.063Z,101423.88
2023-02-04T01:05:04.325Z,101427.91
2023-02-04T01:05:41.109Z,101430.16
2023-02-04T01:06:17.360Z,101430.41
2023-02-04T01:06:53.937Z,101435.03
2023-02-04T01:07:29.597Z,101433.13
2023-02-04T01:08:05.098Z,101439.41
2023-02-04T01:08:41.757Z,101438.56
2023-02-04T01:09:17.848Z,101438.56
2023-02-04T01:09:54.467Z,101445.09
2023-02-04T01:10:30.751Z,101442.13
2023-02-04T01:11:06.660Z,101436.94
2023-02-04T01:11:43.807Z,101438.81
2023-02-04T01:12:20.327Z,101441.06
2023-02-04T01:12:56.912Z,101444.28
2023-02-04T01:13:32.612Z,101440.47
2023-02-04T01:14:09.478Z,101438.56
2023-02-04T01:14:45.833Z,101443.22
2023-02-04T01:15:21.902Z,101436.94
2023-02-04T01:15:58.552Z,101442.38
2023-02-04T01:16:34.300Z,101445.09
2023-02-04T01:17:10.852Z,101444.03
2023-02-04T01:17:47.375Z,101441.56
2023-02-04T01:18:23.365Z,101448.66
2023-02-04T01:18:59.392Z,101450.00
2023-02-04T01:19:35.984Z,101450.56
2023-02-04T01:20:12.044Z,101447.00
2023-02-04T01:20:48.152Z,101450.81
2023-02-04T01:21:25.078Z,101443.72
2023-02-04T01:22:01.583Z,101450.56
2023-02-04T01:22:37.785Z,101447.00
2023-02-04T01:23:13.992Z,101446.75
2023-02-04T01:23:50.075Z,101450.81
2023-02-04T01:24:25.525Z,101456.25
2023-02-04T01:25:01.404Z,101452.47
2023-02-04T01:25:37.159Z,101448.09
2023-02-04T01:26:13.695Z,101443.22
2023-02-04T01:26:50.434Z,101439.91
2023-02-04T01:27:26.646Z,101443.47
2023-02-04T01:28:03.163Z,101443.47
2023-02-04T01:28:39.600Z,101448.09
2023-02-04T01:29:16.094Z,101452.22
2023-02-04T01:29:52.372Z,101453.03
2023-02-04T01:30:28.585Z,101446.50
2023-02-04T01:31:04.465Z,101447.59
2023-02-04T01:31:40.821Z,101453.03
2023-02-04T01:32:17.164Z,101454.13
2023-02-04T01:32:53.882Z,101453.53
2023-02-04T01:33:30.623Z,101453.03
2023-02-04T01:34:07.029Z,101459.00
2023-02-04T01:34:43.353Z,101457.66
2023-02-04T01:35:19.401Z,101459.00
2023-02-04T01:35:55.191Z,101464.19
2023-02-04T01:36:31.460Z,101466.91
2023-02-04T01:37:07.717Z,101457.91
2023-02-04T01:37:44.327Z,101460.38
2023-02-04T01:38:20.581Z,101456.84
2023-02-04T01:38:56.997Z,101465.25
2023-02-04T01:39:33.353Z,101468.81
2023-02-04T01:40:09.521Z,101468.81
2023-02-04T01:40:45.589Z,101466.09
2023-02-04T01:41:22.556Z,101465.00
2023-02-04T01:41:58.711Z,101460.63
2023-02-04T01:42:35.203Z,101464.19
2023-02-04T01:43:11.617Z,101460.91
2023-02-04T01:43:47.765Z,101462.78
2023-02-04T01:44:23.674Z,101468.00
2023-02-04T01:45:00.357Z,101466.34
2023-02-04T01:45:36.266Z,101468.00
2023-02-04T01:46:11.603Z,101466.91
2023-02-04T01:46:48.207Z,101467.75
2023-02-04T01:47:24.595Z,101464.19
2023-02-04T01:48:00.623Z,101474.28
2023-02-04T01:48:37.439Z,101473.19
2023-02-04T01:49:13.585Z,101471.28
2023-02-04T01:49:49.566Z,101473.19
2023-02-04T01:50:25.691Z,101470.47
2023-02-04T01:51:01.382Z,101472.63
2023-02-04T01:51:37.589Z,101475.09
2023-02-04T01:52:13.557Z,101477.25
2023-02-04T01:52:50.094Z,101475.34
2023-02-04T01:53:26.835Z,101479.16
2023-02-04T01:54:03.056Z,101480.22
2023-02-04T01:54:38.856Z,101478.56
2023-02-04T01:55:14.904Z,101476.66
2023-02-04T01:55:50.669Z,101486.50
2023-02-04T01:56:27.202Z,101478.91
2023-02-04T01:57:03.686Z,101483.78
2023-02-04T01:57:39.603Z,101481.88
2023-02-04T01:58:15.744Z,101483.28
2023-02-04T01:58:52.434Z,101484.34
2023-02-04T01:59:29.194Z,101490.31
2023-02-04T02:00:06.473Z,101490.88
2023-02-04T02:00:42.405Z,101486.81
2023-02-04T02:01:17.877Z,101490.88
2023-02-04T02:01:54.360Z,101501.53
2023-02-04T02:02:30.816Z,101493.59
2023-02-04T02:03:07.687Z,101492.53
2023-02-04T02:03:44.140Z,101481.63
2023-02-04T02:04:20.797Z,101491.47
2023-02-04T02:04:57.017Z,101489.56
2023-02-04T02:05:32.538Z,101496.34
2023-02-04T02:06:08.648Z,101494.69
2023-02-04T02:06:45.055Z,101488.97
2023-02-04T02:07:21.328Z,101491.47
2023-02-04T02:07:58.090Z,101488.16
2023-02-04T02:08:34.447Z,101496.91
2023-02-04T02:09:10.745Z,101489.47
2023-02-04T02:09:46.796Z,101498.22
2023-02-04T02:10:23.711Z,101486.25
2023-02-04T02:11:00.349Z,101489.81
2023-02-04T02:11:35.580Z,101494.19
2023-02-04T02:12:12.028Z,101496.34
2023-02-04T02:12:48.258Z,101493.84
2023-02-04T02:13:24.504Z,101496.34
2023-02-04T02:14:01.379Z,101494.19
2023-02-04T02:14:37.895Z,101493.59
2023-02-04T02:15:13.805Z,101496.00
2023-02-04T02:15:49.932Z,101494.44
2023-02-04T02:16:25.799Z,101494.38
2023-02-04T02:17:01.903Z,101492.22
2023-02-04T02:17:38.608Z,101497.66
2023-02-04T02:18:15.662Z,101486.25
2023-02-04T02:18:52.101Z,101494.19
2023-02-04T02:19:28.801Z,101490.63
2023-02-04T02:20:05.834Z,101491.97
2023-02-04T02:20:42.853Z,101481.38
2023-02-04T02:21:18.790Z,101488.16
2023-02-04T02:21:54.876Z,101494.44
2023-02-04T02:22:31.273Z,101486.25
2023-02-04T02:23:08.540Z,101494.19
2023-02-04T02:23:44.600Z,101493.34
2023-02-04T02:24:21.330Z,101496.91
2023-02-04T02:24:58.283Z,101498.56
2023-02-04T02:25:34.515Z,101503.19
2023-02-04T02:26:10.980Z,101496.09
2023-02-04T02:26:47.052Z,101500.72
2023-02-04T02:27:22.813Z,101500.97
2023-02-04T02:27:58.738Z,101500.72
2023-02-04T02:28:34.831Z,101503.34
2023-02-04T02:29:11.051Z,101495.75
2023-02-04T02:29:47.166Z,101502.28
2023-02-04T02:30:23.814Z,101501.22
2023-02-04T02:31:00.234Z,101499.84
2023-02-04T02:31:36.919Z,101508.00
2023-02-04T02:32:13.042Z,101505.28
2023-02-04T02:32:48.936Z,101506.09
2023-02-04T02:33:25.622Z,101506.41
2023-02-04T02:34:01.961Z,101502.84
2023-02-04T02:34:37.849Z,101506.16
2023-02-04T02:35:14.979Z,101506.16
2023-02-04T02:35:51.517Z,101506.75
2023-02-04T02:36:27.857Z,101507.00
2023-02-04T02:37:04.714Z,101509.47
2023-02-04T02:37:41.006Z,101508.63
2023-02-04T02:38:17.153Z,101506.66
2023-02-04T02:38:53.020Z,101504.50
2023-02-04T02:39:29.876Z,101499.63
2023-02-04T02:40:07.641Z,101502.34
2023-02-04T02:40:45.146Z,101505.34
2023-02-04T02:41:22.020Z,101497.41
2023-02-04T02:41:58.980Z,101500.72
2023-02-04T02:42:35.332Z,101504.00
2023-02-04T02:43:10.881Z,101506.16
2023-02-04T02:43:46.861Z,101492.78
2023-02-04T02:44:23.260Z,101501.78
2023-02-04T02:45:00.370Z,101499.06
2023-02-04T02:45:43.577Z,101504.50
2023-02-04T02:46:19.444Z,101503.69
2023-02-04T02:46:55.004Z,101506.16
2023-02-04T02:47:31.865Z,101504.50
2023-02-04T02:48:08.180Z,101505.59
2023-02-04T02:48:44.607Z,101507.00
2023-02-04T02:49:20.909Z,101505.09
2023-02-04T02:49:57.186Z,101505.91
2023-02-04T02:50:33.450Z,101503.44
2023-02-04T02:51:09.696Z,101507.81
2023-02-04T02:51:45.811Z,101505.91
2023-02-04T02:52:21.955Z,101511.13
2023-02-04T02:52:58.416Z,101514.34
2023-02-04T02:53:34.892Z,101511.63
2023-02-04T02:54:11.511Z,101505.34
2023-02-04T02:54:48.109Z,101513.28
2023-02-04T02:55:23.947Z,101515.41
2023-02-04T02:56:00.334Z,101512.13
2023-02-04T02:56:36.028Z,101509.97
2023-02-04T02:57:12.012Z,101513.28
2023-02-04T02:57:48.907Z,101509.97
2023-02-04T02:58:25.178Z,101511.88
2023-02-04T02:59:01.972Z,101510.78
2023-02-04T02:59:38.153Z,101517.91
2023-02-04T03:00:14.961Z,101517.06
2023-02-04T03:00:51.619Z,101513.50
2023-02-04T03:01:26.887Z,101518.16
2023-02-04T03:02:02.617Z,101524.19
2023-02-04T03:02:39.400Z,101518.72
2023-02-04T03:03:15.882Z,101522.53
2023-02-04T03:03:52.320Z,101524.41
2023-02-04T03:04:28.758Z,101518.72
2023-02-04T03:05:05.682Z,101523.34
2023-02-04T03:05:42.819Z,101521.19
2023-02-04T03:06:18.948Z,101522.28
2023-02-04T03:06:54.839Z,101517.31
2023-02-04T03:07:30.298Z,101524.41
2023-02-04T03:08:06.937Z,101520.28
2023-02-04T03:08:44.217Z,101518.16
2023-02-04T03:09:21.001Z,101527.16
2023-02-04T03:09:57.998Z,101523.84
2023-02-04T03:10:34.692Z,101525.75
2023-02-04T03:11:11.745Z,101523.03
2023-02-04T03:11:48.757Z,101521.38
2023-02-04T03:12:24.514Z,101525.75
2023-02-04T03:13:00.489Z,101526.00
2023-02-04T03:13:36.820Z,101514.59
2023-02-04T03:14:14.129Z,101520.88
2023-02-04T03:14:50.479Z,101521.69
2023-02-04T03:15:27.397Z,101520.88
2023-02-04T03:16:03.867Z,101517.91
2023-02-04T03:16:40.338Z,101521.44
2023-02-04T03:17:16.714Z,101522.03
2023-02-04T03:17:52.276Z,101515.41
2023-02-04T03:18:28.219Z,101517.91
2023-02-04T03:19:04.498Z,101521.94
2023-02-04T03:19:41.571Z,101527.97
2023-02-04T03:20:17.811Z,101521.94
2023-02-04T03:20:54.772Z,101526.00
2023-02-04T03:21:30.976Z,101517.31
2023-02-04T03:22:07.414Z,101522.53
2023-02-04T03:22:43.142Z,101522.53
2023-02-04T03:23:19.396Z,101519.78
2023-02-04T03:23:55.201Z,101523.34
2023-02-04T03:24:31.485Z,101520.38
2023-02-04T03:25:07.666Z,101523.59
2023-02-04T03:25:44.246Z,101525.50
2023-02-04T03:26:20.207Z,101518.97
2023-02-04T03:26:56.491Z,101520.88
2023-02-04T03:27:33.045Z,101515.91
2023-02-04T03:28:09.925Z,101526.81
2023-02-04T03:28:45.757Z,101515.38
2023-02-04T03:29:21.768Z,101525.16
2023-02-04T03:29:58.131Z,101528.72
2023-02-04T03:30:36.505Z,101525.16
2023-02-04T03:31:13.258Z,101526.28
2023-02-04T03:31:48.980Z,101529.53
2023-02-04T03:32:25.432Z,101522.78
2023-02-04T03:33:02.200Z,101531.78
2023-02-04T03:33:38.200Z,101533.09
2023-02-04T03:34:14.031Z,101530.13
2023-02-04T03:34:49.750Z,101530.13
2023-02-04T03:35:26.510Z,101535.56
2023-02-04T03:36:02.923Z,101530.13
2023-02-04T03:36:39.397Z,101539.72
2023-02-04T03:37:16.072Z,101532.59
2023-02-04T03:37:52.226Z,101539.72
2023-02-04T03:38:28.889Z,101539.94
2023-02-04T03:39:05.592Z,101541.03
2023-02-04T03:39:42.258Z,101537.47
2023-02-04T03:40:17.691Z,101537.44
2023-02-04T03:40:54.142Z,101538.56
2023-02-04T03:41:30.763Z,101531.19
2023-02-04T03:42:07.764Z,101534.75
2023-02-04T03:42:45.061Z,101542.69
2023-02-04T03:43:22.106Z,101538.31
2023-02-04T03:43:58.309Z,101536.41
2023-02-04T03:44:34.881Z,101544.00
2023-02-04T03:45:10.591Z,101538.06
2023-02-04T03:45:46.504Z,101541.84
2023-02-04T03:46:22.576Z,101548.13
2023-02-04T03:46:58.538Z,101540.44
2023-02-04T03:47:34.632Z,101542.94
2023-02-04T03:48:11.518Z,101542.34
2023-02-04T03:48:47.665Z,101550.03
2023-02-04T03:49:24.439Z,101542.09
2023-02-04T03:50:00.523Z,101543.75
2023-02-04T03:50:36.873Z,101543.47
2023-02-04T03:51:12.938Z,101540.97
2023-02-04T03:51:49.129Z,101541.53
2023-02-04T03:52:24.640Z,101547.31
2023-02-04T03:53:01.382Z,101538.06
2023-02-04T03:53:37.577Z,101545.97
2023-02-04T03:54:13.742Z,101548.13
2023-02-04T03:54:49.982Z,101553.34
2023-02-04T03:55:26.812Z,101547.88
2023-02-04T03:56:03.399Z,101550.84
2023-02-04T03:56:39.546Z,101544.81
2023-02-04T03:57:15.970Z,101554.09
2023-02-04T03:57:51.920Z,101551.94
2023-02-04T03:58:28.475Z,101550.28
2023-02-04T03:59:05.386Z,101551.09
2023-02-04T03:59:41.694Z,101553.78
2023-02-04T04:00:18.176Z,101549.47
2023-02-04T04:00:54.930Z,101548.63
2023-02-04T04:01:31.251Z,101552.75
2023-02-04T04:02:07.205Z,101552.50
2023-02-04T04:02:43.416Z,101551.09
2023-02-04T04:03:19.190Z,101556.31
2023-02-04T04:03:55.845Z,101558.22
2023-02-04T04:04:32.330Z,101549.22
2023-02-04T04:05:08.881Z,101556.56
2023-02-04T04:05:45.203Z,101559.28
2023-02-04T04:06:21.671Z,101555.25
2023-02-04T04:06:57.558Z,101557.38
2023-02-04T04:07:34.257Z,101560.69
2023-02-04T04:08:09.903Z,101557.72
2023-02-04T04:08:45.377Z,101559.03
2023-02-04T04:09:22.041Z,101563.41
2023-02-04T04:09:58.319Z,101562.84
2023-02-04T04:10:34.875Z,101575.41
2023-02-04T04:11:10.877Z,101569.13
2023-02-04T04:11:47.129Z,101564.50
2023-02-04T04:12:23.058Z,101567.78
2023-02-04T04:12:59.420Z,101565.81
2023-02-04T04:13:35.809Z,101566.63
2023-02-04T04:14:11.378Z,101575.06
2023-02-04T04:14:48.119Z,101567.47
2023-02-04T04:15:24.388Z,101571.03
2023-02-04T04:16:00.796Z,101575.41
2023-02-04T04:16:37.745Z,101565.81
2023-02-04T04:17:13.877Z,101576.72
2023-02-04T04:17:49.771Z,101571.59
2023-02-04T04:18:26.665Z,101575.41
2023-02-04T04:19:03.619Z,101584.06
2023-02-04T04:19:39.806Z,101574.81
2023-02-04T04:20:15.912Z,101576.22
2023-02-04T04:20:52.065Z,101572.91
2023-02-04T04:21:28.633Z,101576.22
2023-02-04T04:22:04.292Z,101590.69
2023-02-04T04:22:40.036Z,101591.44
2023-02-04T04:23:16.703Z,101588.97
2023-02-04T04:23:53.117Z,101593.91
2023-02-04T04:24:29.768Z,101593.66
2023-02-04T04:25:06.420Z,101593.06
2023-02-04T04:25:42.487Z,101601.84
2023-02-04T04:26:19.047Z,101598.88
2023-02-04T04:26:55.775Z,101597.22
2023-02-04T04:27:31.876Z,101604.81
2023-02-04T04:28:07.807Z,101597.69
2023-02-04T04:28:44.435Z,101599.94
2023-02-04T04:29:21.164Z,101602.91
2023-02-04T04:29:57.631Z,101597.22
2023-02-04T04:30:33.905Z,101600.44
2023-02-04T04:31:10.650Z,101599.09
2023-02-04T04:31:47.301Z,101608.59
2023-02-04T04:32:23.278Z,101610.25
2023-02-04T04:32:59.099Z,101609.13
2023-02-04T04:33:35.640Z,101614.88
2023-02-04T04:34:11.529Z,101619.25
2023-02-04T04:34:47.949Z,101619.50
2023-02-04T04:35:24.336Z,101619.50
2023-02-04T04:36:00.826Z,101620.34
2023-02-04T04:36:37.658Z,101620.91
2023-02-04T04:37:14.447Z,101621.75
2023-02-04T04:37:50.333Z,101626.94
2023-02-04T04:38:25.937Z,101623.66
2023-02-04T04:39:02.048Z,101620.91
2023-02-04T04:39:38.846Z,101623.31
2023-02-04T04:40:15.224Z,101614.63
2023-02-04T04:40:51.803Z,101616.53
2023-02-04T04:41:28.164Z,101618.44
2023-02-04T04:42:05.201Z,101614.63
2023-02-04T04:42:41.610Z,101614.06
2023-02-04T04:43:17.346Z,101612.41
2023-02-04T04:43:53.307Z,101612.16
2023-02-04T04:44:29.612Z,101606.94
2023-02-04T04:45:07.181Z,101597.69
2023-02-04T04:45:43.626Z,101599.09
2023-02-04T04:46:19.850Z,101607.63
2023-02-04T04:46:56.424Z,101616.28
2023-02-04T04:47:32.104Z,101604.31
2023-02-04T04:48:08.430Z,101613.56
2023-02-04T04:48:44.980Z,101615.72
2023-02-04T04:49:21.980Z,101613.00
2023-02-04T04:49:58.339Z,101623.66
2023-02-04T04:50:34.901Z,101622.81
2023-02-04T04:51:10.831Z,101620.09
2023-02-04T04:51:47.378Z,101614.63
2023-02-04T04:52:23.212Z,101617.38
2023-02-04T04:52:59.284Z,101621.16
2023-02-04T04:53:35.254Z,101614.63
2023-02-04T04:54:11.393Z,101610.78
2023-02-04T04:54:47.839Z,101608.59
2023-02-04T04:55:24.400Z,101611.91
2023-02-04T04:56:00.923Z,101618.19
2023-02-04T04:56:37.138Z,101612.75
2023-02-04T04:57:14.229Z,101614.41
2023-02-04T04:57:49.997Z,101616.28
2023-02-04T04:58:26.231Z,101614.63
2023-02-04T04:59:02.311Z,101612.75
2023-02-04T04:59:38.495Z,101611.09
2023-02-04T05:00:14.467Z,101607.47
2023-02-04T05:00:50.990Z,101606.94
2023-02-04T05:01:27.358Z,101609.69
2023-02-04T05:02:04.140Z,101613.50
2023-02-04T05:02:41.477Z,101615.72
2023-02-04T05:03:17.801Z,101617.38
2023-02-04T05:03:54.124Z,101617.84
2023-02-04T05:04:29.636Z,101611.09
2023-02-04T05:05:06.031Z,101613.00
2023-02-04T05:05:42.761Z,101619.25
2023-02-04T05:06:19.079Z,101622.00
2023-02-04T05:06:55.773Z,101621.69
2023-02-04T05:07:31.975Z,101627.69
2023-02-04T05:08:08.568Z,101627.44
2023-02-04T05:08:44.754Z,101625.78
2023-02-04T05:09:21.172Z,101622.56
2023-02-04T05:09:56.661Z,101626.63
2023-02-04T05:10:33.625Z,101626.63
2023-02-04T05:11:10.446Z,101631.25
2023-02-04T05:11:46.369Z,101629.59
2023-02-04T05:12:23.115Z,101634.81
2023-02-04T05:12:59.254Z,101636.44
2023-02-04T05:13:35.680Z,101641.91
2023-02-04T05:14:11.426Z,101635.38
2023-02-04T05:14:47.812Z,101639.19
2023-02-04T05:15:23.513Z,101636.69
2023-02-04T05:15:59.435Z,101636.16
2023-02-04T05:16:36.353Z,101642.66
2023-02-04T05:17:12.475Z,101636.41
2023-02-04T05:17:48.468Z,101633.97
2023-02-04T05:18:25.237Z,101645.13
2023-02-04T05:19:01.664Z,101643.81
2023-02-04T05:19:38.008Z,101641.91
2023-02-04T05:20:13.828Z,101646.78
2023-02-04T05:20:49.745Z,101643.22
2023-02-04T05:21:26.128Z,101646.78
2023-02-04T05:22:02.907Z,101646.53
2023-02-04T05:22:39.495Z,101637.53
2023-02-04T05:23:16.340Z,101643.56
2023-02-04T05:23:53.332Z,101638.06
2023-02-04T05:24:30.313Z,101640.50
2023-02-04T05:25:06.783Z,101642.66
2023-02-04T05:25:43.528Z,101641.31
2023-02-04T05:26:29.546Z,101636.94
2023-02-04T05:27:05.668Z,101630.94
2023-02-04T05:27:42.481Z,101631.25
2023-02-04T05:28:19.187Z,101635.88
2023-02-04T05:28:55.568Z,101632.06
2023-02-04T05:29:31.921Z,101631.81
2023-02-04T05:30:08.774Z,101637.53
2023-02-04T05:30:44.528Z,101635.88
2023-02-04T05:31:20.284Z,101636.41
2023-02-04T05:31:56.211Z,101644.56
2023-02-04T05:32:32.994Z,101640.50
2023-02-04T05:33:09.199Z,101642.97
2023-02-04T05:33:46.413Z,101637.22
2023-02-04T05:34:23.393Z,101640.19
2023-02-04T05:35:00.210Z,101636.16
2023-02-04T05:35:35.968Z,101638.88
2023-02-04T05:36:12.041Z,101639.94
2023-02-04T05:36:47.689Z,101640.50
2023-02-04T05:37:23.617Z,101638.59
2023-02-04T05:38:00.307Z,101640.50
2023-02-04T05:38:36.693Z,101643.22
2023-02-04T05:39:13.203Z,101648.94
2023-02-04T05:39:49.719Z,101642.72
2023-02-04T05:40:26.604Z,101647.34
2023-02-04T05:41:02.533Z,101645.94
2023-02-04T05:41:39.082Z,101653.88
2023-02-04T05:42:14.771Z,101656.03
2023-02-04T05:42:52.312Z,101651.41
2023-02-04T05:43:28.265Z,101654.97
2023-02-04T05:44:04.668Z,101654.97
2023-02-04T05:44:40.983Z,101661.22
2023-02-04T05:45:17.087Z,101656.31
2023-02-04T05:45:53.646Z,101666.94
2023-02-04T05:46:30.212Z,101661.75
2023-02-04T05:47:06.736Z,101663.91
2023-02-04T05:47:43.071Z,101657.63
2023-02-04T05:48:19.351Z,101664.97
2023-02-04T05:48:55.421Z,101669.09
2023-02-04T05:49:31.356Z,101671.59
2023-02-04T05:50:07.890Z,101681.66
2023-02-04T05:50:44.762Z,101677.84
2023-02-04T05:51:21.628Z,101676.75
2023-02-04T05:51:58.302Z,101674.03
2023-02-04T05:52:33.843Z,101672.38
2023-02-04T05:53:09.662Z,101674.56
2023-02-04T05:53:45.894Z,101674.03
2023-02-04T05:54:22.398Z,101668.88
2023-02-04T05:54:58.907Z,101674.88
2023-02-04T05:55:34.824Z,101675.38
2023-02-04T05:56:11.011Z,101685.22
2023-02-04T05:56:46.770Z,101679.19
2023-02-04T05:57:23.429Z,101674.31
2023-02-04T05:57:59.158Z,101677.03
2023-02-04T05:58:35.848Z,101682.75
2023-02-04T05:59:12.361Z,101678.94
2023-02-04T05:59:48.839Z,101685.78
2023-02-04T06:00:25.833Z,101679.25
2023-02-04T06:01:02.132Z,101681.16
2023-02-04T06:01:37.865Z,101684.94
2023-02-04T06:02:13.825Z,101682.50
2023-02-04T06:02:50.704Z,101687.13
2023-02-04T06:03:27.199Z,101681.16
2023-02-04T06:04:03.773Z,101683.03
2023-02-04T06:04:40.302Z,101681.16
2023-02-04T06:05:16.901Z,101681.16
2023-02-04T06:05:53.255Z,101682.50
2023-02-04T06:06:29.034Z,101687.38
2023-02-04T06:07:04.805Z,101681.38
2023-02-04T06:07:41.240Z,101682.22
2023-02-04T06:08:17.433Z,101683.03
2023-02-04T06:08:54.132Z,101682.50
2023-02-04T06:09:30.800Z,101685.78
2023-02-04T06:10:07.121Z,101683.63
2023-02-04T06:10:43.761Z,101675.44
2023-02-04T06:11:19.919Z,101680.91
2023-02-04T06:11:55.924Z,101679.00
2023-02-04T06:12:31.751Z,101683.28
2023-02-04T06:13:08.334Z,101682.97
2023-02-04T06:13:44.931Z,101687.38
2023-02-04T06:14:21.528Z,101685.22
2023-02-04T06:14:57.682Z,101689.31
2023-02-04T06:15:33.794Z,101699.16
2023-02-04T06:16:09.757Z,101690.16
2023-02-04T06:16:46.249Z,101687.44
2023-02-04T06:17:22.937Z,101692.63
2023-02-04T06:17:58.510Z,101692.63
2023-02-04T06:18:34.912Z,101692.63
2023-02-04T06:19:11.083Z,101693.72
2023-02-04T06:19:47.867Z,101695.34
2023-02-04T06:20:24.206Z,101689.91
2023-02-04T06:21:00.255Z,101690.41
2023-02-04T06:21:36.872Z,101701.63
2023-02-04T06:22:13.111Z,101708.41
2023-02-04T06:22:49.225Z,101703.78
2023-02-04T06:23:25.351Z,101707.03
2023-02-04T06:24:01.153Z,101701.81
2023-02-04T06:24:37.351Z,101707.28
2023-02-04T06:25:13.334Z,101704.53
2023-02-04T06:25:49.442Z,101706.44
2023-02-04T06:26:26.016Z,101710.56
2023-02-04T06:27:02.494Z,101706.22
2023-02-04T06:27:38.937Z,101699.94
2023-02-04T06:28:15.155Z,101707.59
2023-02-04T06:28:50.677Z,101710.06
2023-02-04T06:29:26.926Z,101709.47
2023-02-04T06:30:05.490Z,101712.22
2023-02-04T06:30:42.550Z,101705.09
2023-02-04T06:31:18.909Z,101710.06
2023-02-04T06:31:55.155Z,101709.25
2023-02-04T06:32:32.069Z,101714.44
2023-02-04T06:33:08.051Z,101710.91
2023-02-04T06:33:44.561Z,101711.97
2023-02-04T06:34:19.720Z,101702.97
2023-02-04T06:34:55.168Z,101700.47
2023-02-04T06:35:31.717Z,101707.03
2023-02-04T06:36:08.409Z,101705.09
2023-02-04T06:36:44.941Z,101708.41
2023-02-04T06:37:22.974Z,101705.69
2023-02-04T06:37:59.836Z,101704.31
2023-02-04T06:38:36.104Z,101718.50
2023-02-04T06:39:12.632Z,101713.28
2023-02-04T06:39:49.167Z,101708.41
2023-02-04T06:40:25.086Z,101714.94
2023-02-04T06:41:01.764Z,101715.75
2023-02-04T06:41:37.654Z,101711.13
2023-02-04T06:42:14.223Z,101716.59
2023-02-04T06:42:50.895Z,101714.94
2023-02-04T06:43:27.622Z,101713.56
2023-02-04T06:44:04.028Z,101713.03
2023-02-04T06:44:39.601Z,101713.56
2023-02-04T06:45:15.309Z,101717.09
2023-02-04T06:45:52.203Z,101711.66
2023-02-04T06:46:28.977Z,101716.84
2023-02-04T06:47:05.382Z,101719.31
2023-02-04T06:47:41.757Z,101713.03
2023-02-04T06:48:18.618Z,101713.28
2023-02-04T06:48:54.873Z,101721.47
2023-02-04T06:49:31.228Z,101720.38
2023-02-04T06:50:07.687Z,101714.09
2023-02-04T06:50:43.247Z,101719.25
2023-02-04T06:51:19.740Z,101718.72
2023-02-04T06:51:56.205Z,101715.22
2023-02-04T06:52:32.139Z,101715.75
2023-02-04T06:53:09.091Z,101721.47
2023-02-04T06:53:45.567Z,101719.56
2023-02-04T06:54:21.920Z,101722.56
2023-02-04T06:54:58.816Z,101721.22